TimeAKDT,TemperatureF,Dew PointF,Humidity,Sea Level PressureIn,VisibilityMPH,Wind Direction,Wind SpeedMPH,Gust SpeedMPH,PrecipitationIn,Events,Conditions,WindDirDegrees,DateUTC
12:53 AM,28.0,26.1,92,29.84,10.0,ESE,4.6,-,N/A,,Partly Cloudy,110,2012-09-30 08:53:00
1:53 AM,33.1,28.0,82,29.85,10.0,SSW,5.8,-,N/A,,Mostly Cloudy,210,2012-09-30 09:53:00
2:53 AM,33.1,26.1,75,29.85,10.0,SSW,5.8,-,N/A,,Mostly Cloudy,210,2012-09-30 10:53:00
3:53 AM,32.0,28.0,85,29.87,10.0,WSW,3.5,-,N/A,,Mostly Cloudy,250,2012-09-30 11:53:00
4:53 AM,32.0,27.0,82,29.88,10.0,Calm,Calm,-,N/A,,Mostly Cloudy,0,2012-09-30 12:53:00
5:53 AM,30.9,30.0,96,29.89,10.0,NE,4.6,-,0.00,,Mostly Cloudy,50,2012-09-30 13:53:00
6:53 AM,32.0,28.0,85,29.90,10.0,SE,5.8,-,N/A,,Overcast,130,2012-09-30 14:53:00
7:53 AM,30.9,28.9,92,29.91,10.0,South,3.5,-,N/A,,Overcast,170,2012-09-30 15:53:00
9:53 AM,33.1,24.1,70,29.91,10.0,South,4.6,-,N/A,,Overcast,180,2012-09-30 17:53:00
10:53 AM,33.1,25.0,72,29.91,10.0,South,8.1,-,N/A,,Overcast,170,2012-09-30 18:53:00
11:53 AM,33.1,25.0,72,29.92,10.0,SSE,5.8,-,N/A,,Overcast,160,2012-09-30 19:53:00
12:46 PM,33.8,26.6,75,29.92,10.0,ESE,6.9,-,N/A,,Overcast,120,2012-09-30 20:46:00
12:53 PM,34.0,27.0,75,29.93,10.0,ESE,6.9,-,N/A,,Overcast,110,2012-09-30 20:53:00
1:24 PM,33.8,28.4,81,29.92,5.0,ESE,6.9,-,0.00,Snow,Light Snow,110,2012-09-30 21:24:00
1:39 PM,35.6,28.4,75,29.93,10.0,ESE,9.2,-,0.00,,Overcast,120,2012-09-30 21:39:00
1:53 PM,34.0,30.9,89,29.93,8.0,ESE,11.5,-,0.00,,Overcast,120,2012-09-30 21:53:00
2:51 PM,35.6,26.6,70,29.91,10.0,SE,12.7,-,0.00,,Overcast,130,2012-09-30 22:51:00
2:53 PM,35.1,27.0,72,29.92,10.0,SE,10.4,-,0.00,,Overcast,130,2012-09-30 22:53:00
3:53 PM,35.1,28.0,76,29.93,10.0,SE,11.5,-,N/A,,Overcast,140,2012-09-30 23:53:00
4:44 PM,35.6,30.2,81,29.92,9.0,ESE,10.4,-,0.00,,Overcast,120,2012-10-01 00:44:00
4:53 PM,35.1,30.9,85,29.92,10.0,SE,11.5,-,0.00,,Overcast,130,2012-10-01 00:53:00
5:28 PM,33.8,32.0,93,29.92,4.0,SE,13.8,-,0.00,Snow,Light Snow,140,2012-10-01 01:28:00
5:53 PM,34.0,32.0,92,29.93,7.0,ESE,10.4,-,0.00,Snow,Light Snow,120,2012-10-01 01:53:00
6:53 PM,34.0,32.0,92,29.91,5.0,ESE,11.5,-,0.00,Snow,Light Snow,120,2012-10-01 02:53:00
7:53 PM,34.0,32.0,92,29.91,7.0,East,8.1,-,0.00,,Overcast,100,2012-10-01 03:53:00
8:53 PM,33.1,32.0,96,29.91,10.0,ESE,6.9,-,0.00,,Overcast,120,2012-10-01 04:53:00
9:53 PM,33.1,32.0,96,29.90,5.0,SE,10.4,-,0.01,Snow,Light Snow,130,2012-10-01 05:53:00
10:53 PM,33.1,30.0,89,29.89,10.0,East,15.0,-,0.00,,Mostly Cloudy,90,2012-10-01 06:53:00
11:53 PM,33.1,30.9,92,29.88,4.0,ESE,9.2,-,0.00,Snow,Light Snow,110,2012-10-01 07:53:00